Time;durP1;ratioP1;P1;durP2;ratioP2;P2;SDS_P1;SDS_P2;PMS_P1;PMS_P2;Temp;Humidity;BMP_temperature;BMP_pressure;BME280_temperature;BME280_humidity;BME280_pressure;Samples;Min_cycle;Max_cycle;Signal;HPM_P1;HPM_P2
2022/12/31 00:00:29;;;;;;;36.65;23.83;;;;;;;10.82;62.73;101763.25;4952736;28;20079;-82
2022/12/31 00:02:54;;;;;;;40.55;24.98;;;;;;;10.66;62.48;101749.06;4952685;28;20023;-80
2022/12/31 00:05:21;;;;;;;44.95;24.17;;;;;;;10.69;62.71;101765.03;4952236;28;20458;-79
2022/12/31 00:07:47;;;;;;;45.35;24.50;;;;;;;10.77;62.81;101773.44;4952449;28;20503;-79
2022/12/31 00:10:12;;;;;;;49.22;25.80;;;;;;;10.75;63.21;101770.00;4952516;28;20031;-80
2022/12/31 00:12:37;;;;;;;38.08;24.42;;;;;;;10.67;63.03;101769.59;4952567;28;20509;-80
2022/12/31 00:15:03;;;;;;;54.78;26.48;;;;;;;10.66;62.79;101767.91;4952205;28;20490;-80
2022/12/31 00:17:29;;;;;;;50.50;24.33;;;;;;;10.69;62.83;101770.41;4952316;28;20411;-80
2022/12/31 00:19:54;;;;;;;48.70;25.98;;;;;;;10.73;62.78;101801.50;4952258;28;20107;-80
2022/12/31 00:22:20;;;;;;;43.63;24.88;;;;;;;10.62;62.60;101769.06;4952447;28;20086;-80
2022/12/31 00:24:45;;;;;;;42.22;25.00;;;;;;;10.68;62.54;101800.94;4952658;28;20128;-80
2022/12/31 00:27:10;;;;;;;41.20;25.35;;;;;;;10.53;62.39;101783.09;4952473;28;20058;-80
2022/12/31 00:29:36;;;;;;;45.85;27.52;;;;;;;10.63;62.55;101800.38;4952539;28;20035;-81
2022/12/31 00:32:01;;;;;;;58.83;31.15;;;;;;;10.45;62.72;101790.78;4952182;28;20070;-81
2022/12/31 00:34:27;;;;;;;43.33;26.30;;;;;;;10.41;63.52;101802.69;4952312;28;20082;-81
2022/12/31 00:36:52;;;;;;;47.45;29.40;;;;;;;10.26;63.40;101788.34;4952315;28;20603;-80
2022/12/31 00:39:18;;;;;;;53.40;29.67;;;;;;;10.23;63.60;101811.88;4952227;28;20035;-80
2022/12/31 00:41:43;;;;;;;50.22;29.05;;;;;;;10.23;63.57;101810.06;4952316;28;20039;-80
2022/12/31 00:44:12;;;;;;;40.03;26.40;;;;;;;10.25;63.63;101815.31;4952113;28;20023;-80
2022/12/31 00:46:38;;;;;;;46.35;25.95;;;;;;;10.10;63.66;101808.16;4952405;28;20035;-80
2022/12/31 00:49:03;;;;;;;49.20;27.42;;;;;;;10.05;64.19;101815.66;4951973;28;20106;-79
2022/12/31 00:51:29;;;;;;;44.03;26.98;;;;;;;10.00;64.28;101812.38;4952174;28;20078;-79
2022/12/31 00:53:56;;;;;;;50.92;27.70;;;;;;;9.99;64.29;101816.88;4951923;28;20031;-79
2022/12/31 00:56:25;;;;;;;47.22;25.98;;;;;;;9.95;64.34;101825.22;4952106;28;20031;-80
2022/12/31 00:58:51;;;;;;;42.63;25.45;;;;;;;9.82;64.63;101817.00;4934853;28;20549;-79
2022/12/31 01:01:24;;;;;;;53.22;27.40;;;;;;;9.77;64.89;101813.75;4951778;28;20035;-79
2022/12/31 01:03:53;;;;;;;42.65;25.90;;;;;;;9.70;65.25;101807.88;4952010;28;20058;-79
2022/12/31 01:06:19;;;;;;;47.72;26.73;;;;;;;9.76;65.47;101830.81;4933858;28;20045;-81
2022/12/31 01:08:47;;;;;;;43.83;26.05;;;;;;;9.67;65.44;101813.41;4951742;28;20410;-79
2022/12/31 01:11:20;;;;;;;47.65;28.35;;;;;;;9.62;65.54;101817.34;4951940;28;20094;-80
2022/12/31 01:13:52;;;;;;;46.35;23.08;;;;;;;9.54;65.95;101824.97;4952324;28;20028;-82
2022/12/31 01:16:23;;;;;;;44.85;25.77;;;;;;;9.54;65.94;101825.81;4951864;28;20035;-81
2022/12/31 01:18:49;;;;;;;44.05;22.52;;;;;;;9.50;66.41;101818.91;4951347;28;20500;-81
2022/12/31 01:21:14;;;;;;;41.25;23.98;;;;;;;9.52;66.21;101817.00;4951573;28;20050;-81
2022/12/31 01:23:40;;;;;;;59.00;26.20;;;;;;;9.54;66.45;101820.44;4951661;28;20062;-79
2022/12/31 01:26:08;;;;;;;38.75;24.50;;;;;;;9.60;66.37;101819.25;4951860;28;20039;-79
2022/12/31 01:28:34;;;;;;;42.67;24.40;;;;;;;9.58;66.27;101811.28;4951652;28;20054;-80
2022/12/31 01:31:06;;;;;;;39.45;25.13;;;;;;;9.60;66.16;101814.72;4951857;28;20031;-81
2022/12/31 01:33:32;;;;;;;46.88;28.00;;;;;;;9.61;66.34;101816.47;4951796;28;20059;-80
2022/12/31 01:36:05;;;;;;;45.50;27.20;;;;;;;9.60;66.28;101813.88;4951806;28;20035;-80
2022/12/31 01:38:31;;;;;;;45.03;27.92;;;;;;;9.66;66.29;101814.34;4951568;28;20534;-81
2022/12/31 01:40:57;;;;;;;47.53;27.25;;;;;;;9.62;66.18;101812.81;4949864;28;20040;-80
2022/12/31 01:43:22;;;;;;;44.83;24.70;;;;;;;9.67;66.21;101810.72;4951867;28;20437;-80
2022/12/31 01:45:53;;;;;;;47.42;27.13;;;;;;;9.71;66.33;101817.66;4951558;28;20027;-80
2022/12/31 01:48:24;;;;;;;47.45;29.05;;;;;;;9.71;66.10;101814.97;4951768;28;20545;-80
2022/12/31 01:50:51;;;;;;;51.90;28.17;;;;;;;9.74;65.97;101814.78;4951852;28;20031;-80
2022/12/31 01:53:17;;;;;;;46.47;27.95;;;;;;;9.82;66.00;101820.56;4951645;28;20061;-80
2022/12/31 01:55:51;;;;;;;60.97;29.33;;;;;;;9.84;65.71;101818.69;4954382;28;20023;-81
2022/12/31 01:58:21;;;;;;;48.17;28.70;;;;;;;9.83;65.58;101811.56;4954626;28;20110;-81
2022/12/31 02:00:48;;;;;;;48.10;28.92;;;;;;;9.91;65.44;101816.47;4936803;28;20070;-80
2022/12/31 02:03:14;;;;;;;45.70;30.33;;;;;;;9.78;65.91;101812.78;4954919;28;20038;-80
2022/12/31 02:06:22;;;;;;;50.38;29.50;;;;;;;9.83;65.85;101813.38;4954746;28;20027;-81
2022/12/31 02:08:48;;;;;;;52.00;32.33;;;;;;;9.81;65.79;101813.44;4895663;29;20506;-79
2022/12/31 02:11:21;;;;;;;53.35;35.67;;;;;;;9.83;65.71;101811.56;4895149;29;20021;-81
2022/12/31 02:13:47;;;;;;;60.65;37.95;;;;;;;9.87;65.65;101822.13;4895001;29;20067;-79
2022/12/31 02:16:30;;;;;;;73.97;46.72;;;;;;;9.85;65.46;101828.44;4895484;29;20433;-80
2022/12/31 02:19:04;;;;;;;88.05;49.50;;;;;;;9.76;65.73;101826.31;4895261;29;20033;-80
2022/12/31 02:21:42;;;;;;;108.40;56.92;;;;;;;9.72;65.75;101823.91;4894886;29;20044;-79
2022/12/31 02:24:32;;;;;;;89.35;53.55;;;;;;;9.70;65.89;101826.66;4887935;29;20473;-80
2022/12/31 02:27:31;;;;;;;94.93;54.58;;;;;;;9.65;66.01;101820.72;4895463;29;20452;-79
2022/12/31 02:30:07;;;;;;;94.00;56.83;;;;;;;9.45;65.71;101807.56;4894955;29;20113;-80
2022/12/31 02:33:13;;;;;;;87.28;55.78;;;;;;;9.53;66.13;101824.09;4894666;29;20044;-80
2022/12/31 02:35:52;;;;;;;83.97;54.05;;;;;;;9.51;66.19;101827.84;4857638;29;20048;-79
2022/12/31 02:38:29;;;;;;;89.35;53.20;;;;;;;9.38;66.64;101830.38;4857711;29;20046;-79
2022/12/31 02:40:56;;;;;;;99.68;55.05;;;;;;;9.24;66.92;101819.53;4876335;29;20051;-80
2022/12/31 02:43:22;;;;;;;87.30;53.25;;;;;;;9.25;67.13;101832.00;4876435;29;20025;-80
2022/12/31 02:46:13;;;;;;;88.40;53.58;;;;;;;9.27;67.25;101824.72;4876629;29;20037;-81
2022/12/31 02:49:00;;;;;;;84.05;53.47;;;;;;;9.19;67.37;101819.81;4874342;29;20036;-80
2022/12/31 02:51:44;;;;;;;95.10;53.15;;;;;;;9.22;67.09;101829.50;4876223;29;20119;-80
2022/12/31 02:54:21;;;;;;;95.55;56.25;;;;;;;9.20;67.39;101831.41;4877175;29;20036;-80
2022/12/31 02:57:05;;;;;;;87.53;53.80;;;;;;;9.18;67.54;101828.81;4879968;29;20065;-79
2022/12/31 03:02:29;;;;;;;121.20;65.70;;;;;;;9.05;67.64;101832.28;4887622;29;20044;-79
2022/12/31 03:04:56;;;;;;;102.88;62.92;;;;;;;8.97;67.71;101839.88;4879127;29;20037;-79
2022/12/31 03:07:25;;;;;;;100.35;57.67;;;;;;;8.95;67.93;101841.78;4879688;29;20104;-79
2022/12/31 03:09:51;;;;;;;83.70;53.45;;;;;;;9.02;67.92;101843.19;4861799;29;20033;-79
2022/12/31 03:15:05;;;;;;;101.05;60.35;;;;;;;9.09;67.83;101840.06;4953704;28;20079;-80
2022/12/31 03:17:32;;;;;;;108.80;67.13;;;;;;;9.03;67.85;101844.88;4953368;28;20037;-81
2022/12/31 03:22:42;;;;;;;119.78;71.85;;;;;;;9.07;68.12;101839.28;4953696;28;20110;-80
2022/12/31 03:27:54;;;;;;;101.55;64.13;;;;;;;9.05;67.32;101849.22;4953339;28;20047;-80
2022/12/31 03:30:21;;;;;;;108.60;66.70;;;;;;;8.95;67.21;101847.16;4953429;28;20035;-80
2022/12/31 03:32:49;;;;;;;117.60;68.00;;;;;;;9.02;67.74;101853.91;4952804;28;20051;-80
2022/12/31 03:35:18;;;;;;;111.63;72.45;;;;;;;8.99;67.39;101843.34;4952817;28;20471;-81
2022/12/31 03:37:43;;;;;;;114.65;68.95;;;;;;;9.02;67.16;101859.28;4952856;28;20490;-79
2022/12/31 03:40:12;;;;;;;112.55;70.22;;;;;;;8.80;67.26;101848.00;4952779;28;20159;-80
2022/12/31 03:42:37;;;;;;;123.03;73.32;;;;;;;8.73;67.79;101848.31;4952681;28;20033;-79
2022/12/31 03:45:03;;;;;;;129.35;72.10;;;;;;;8.84;67.88;101849.56;4952872;28;20027;-79
2022/12/31 03:47:29;;;;;;;113.40;70.25;;;;;;;8.76;67.58;101844.59;4952673;28;20023;-80
2022/12/31 03:49:54;;;;;;;129.38;69.60;;;;;;;8.83;67.40;101858.56;4952411;28;20039;-80
2022/12/31 03:52:20;;;;;;;112.18;68.07;;;;;;;8.84;67.83;101860.28;4935049;29;20398;-80
2022/12/31 03:54:45;;;;;;;118.72;71.93;;;;;;;8.87;67.28;101860.13;4952586;28;20058;-79
2022/12/31 03:57:11;;;;;;;116.05;67.90;;;;;;;8.89;67.81;101861.78;4952223;28;20119;-81
2022/12/31 03:59:36;;;;;;;105.20;67.78;;;;;;;8.90;67.48;101859.97;4952891;28;20030;-80
2022/12/31 04:02:02;;;;;;;114.05;68.80;;;;;;;8.86;67.59;101869.13;4952854;28;20128;-79
2022/12/31 04:04:27;;;;;;;111.63;67.07;;;;;;;8.82;67.37;101862.19;4952833;28;20103;-80
2022/12/31 04:06:53;;;;;;;117.45;69.22;;;;;;;8.72;67.33;101862.69;4967659;28;20430;-80
2022/12/31 04:09:19;;;;;;;113.53;64.93;;;;;;;8.74;68.05;101859.94;4952741;28;20058;-81
2022/12/31 04:11:44;;;;;;;105.95;65.05;;;;;;;8.73;67.57;101863.53;4952570;28;20089;-80
2022/12/31 04:14:10;;;;;;;114.97;66.80;;;;;;;8.62;67.68;101850.69;4953354;28;20039;-81
2022/12/31 04:16:36;;;;;;;110.75;67.65;;;;;;;8.51;67.77;101861.16;4952681;28;20031;-80
2022/12/31 04:19:02;;;;;;;112.35;66.07;;;;;;;8.50;68.47;101862.09;4952627;28;20035;-80
2022/12/31 04:21:28;;;;;;;105.15;63.35;;;;;;;8.55;68.54;101878.81;4952722;28;20042;-80
2022/12/31 04:23:53;;;;;;;106.97;64.35;;;;;;;8.56;68.08;101874.31;4952405;28;20032;-81
2022/12/31 04:26:19;;;;;;;101.88;63.88;;;;;;;8.58;68.05;101875.97;4952638;28;20557;-81
2022/12/31 04:28:44;;;;;;;120.55;67.75;;;;;;;8.56;67.91;101871.63;4952282;28;20030;-80
2022/12/31 04:31:10;;;;;;;122.25;67.18;;;;;;;8.58;67.96;101878.66;4952370;28;20039;-80
2022/12/31 04:33:36;;;;;;;101.22;65.95;;;;;;;8.57;67.77;101879.59;4952058;28;20062;-79
2022/12/31 04:36:03;;;;;;;119.63;66.75;;;;;;;8.51;67.73;101887.97;4951971;28;20031;-80
2022/12/31 04:38:29;;;;;;;111.10;66.72;;;;;;;8.52;68.09;101881.66;4951872;28;20031;-79
2022/12/31 04:43:39;;;;;;;110.88;67.60;;;;;;;8.57;68.19;101878.72;4952000;28;20057;-79
2022/12/31 04:46:05;;;;;;;111.88;70.38;;;;;;;8.47;67.77;101878.34;4951980;28;20467;-81
2022/12/31 04:48:31;;;;;;;112.35;68.45;;;;;;;8.53;67.82;101872.66;4951550;28;20039;-80
2022/12/31 04:50:57;;;;;;;121.93;69.30;;;;;;;8.54;67.93;101885.13;4951605;28;20503;-81
2022/12/31 04:53:23;;;;;;;114.13;67.82;;;;;;;8.48;67.96;101897.97;4951790;28;20035;-80
2022/12/31 04:55:49;;;;;;;119.35;71.20;;;;;;;8.47;67.92;101894.41;4951978;28;20027;-80
2022/12/31 04:58:14;;;;;;;126.82;73.18;;;;;;;8.33;68.55;101885.38;4951813;28;20042;-79
2022/12/31 05:00:40;;;;;;;122.57;74.78;;;;;;;8.37;68.38;101897.69;4951992;28;20027;-81
2022/12/31 05:03:05;;;;;;;130.18;78.82;;;;;;;8.39;68.89;101902.00;4951835;28;20451;-80
2022/12/31 05:05:30;;;;;;;144.80;75.95;;;;;;;8.30;69.34;101897.13;4951801;28;20600;-81
2022/12/31 05:07:56;;;;;;;132.05;76.93;;;;;;;8.44;68.96;101899.94;4952900;28;20035;-78
2022/12/31 05:10:22;;;;;;;132.35;72.53;;;;;;;8.46;68.54;101908.78;4952131;28;20082;-81
2022/12/31 05:12:47;;;;;;;127.13;70.25;;;;;;;8.51;68.66;101901.38;4951866;28;20083;-80
2022/12/31 05:15:13;;;;;;;130.77;70.28;;;;;;;8.51;68.88;101909.41;4951895;28;20027;-80
2022/12/31 05:17:38;;;;;;;114.95;64.82;;;;;;;8.55;68.21;101897.59;4934628;28;20039;-81
2022/12/31 05:20:04;;;;;;;106.65;62.88;;;;;;;8.60;68.57;101906.25;4951670;28;20102;-80
2022/12/31 05:22:30;;;;;;;119.03;62.65;;;;;;;8.63;68.46;101911.44;4951714;28;20042;-80
2022/12/31 05:24:59;;;;;;;101.00;57.97;;;;;;;8.63;68.29;101924.84;4952003;28;20023;-81
2022/12/31 05:27:27;;;;;;;104.15;59.13;;;;;;;8.65;67.86;101917.59;4952665;28;20058;-81
2022/12/31 05:29:52;;;;;;;93.57;56.70;;;;;;;8.71;67.79;101921.78;4955736;28;20051;-79
2022/12/31 05:32:17;;;;;;;93.32;55.88;;;;;;;8.69;67.73;101932.56;4957227;28;20051;-81
2022/12/31 05:34:43;;;;;;;112.00;57.22;;;;;;;8.59;68.03;101920.59;4955200;28;20062;-81
2022/12/31 05:37:09;;;;;;;87.85;51.83;;;;;;;8.49;68.68;101927.41;4955182;28;20063;-78
2022/12/31 05:39:34;;;;;;;90.32;54.08;;;;;;;8.46;68.68;101919.50;4955307;28;20027;-81
2022/12/31 05:41:59;;;;;;;85.97;53.33;;;;;;;8.50;68.76;101931.78;4937838;28;20055;-81
2022/12/31 05:44:25;;;;;;;86.45;49.10;;;;;;;8.53;68.96;101934.31;4954667;28;20055;-80
2022/12/31 05:46:50;;;;;;;82.28;49.85;;;;;;;8.49;68.51;101924.72;4954920;28;20143;-81
2022/12/31 05:49:16;;;;;;;98.82;52.33;;;;;;;8.54;68.67;101938.75;4954943;28;20020;-81
2022/12/31 05:51:41;;;;;;;74.22;45.72;;;;;;;8.44;68.74;101918.72;4954853;28;20032;-80
2022/12/31 05:54:07;;;;;;;104.63;54.90;;;;;;;8.48;68.90;101925.66;4955130;28;20033;-80
2022/12/31 05:56:33;;;;;;;76.30;49.92;;;;;;;8.55;68.68;101940.50;4954568;28;20422;-80
2022/12/31 05:58:59;;;;;;;84.35;49.97;;;;;;;8.57;68.67;101948.44;4954852;28;20035;-81
2022/12/31 06:01:24;;;;;;;92.57;49.30;;;;;;;8.52;68.89;101940.66;4955035;28;20091;-83
2022/12/31 06:03:50;;;;;;;86.60;50.47;;;;;;;8.54;69.06;101951.28;4954899;28;20031;-82
2022/12/31 06:06:15;;;;;;;78.70;48.03;;;;;;;8.47;69.00;101942.69;4954955;28;20032;-82
2022/12/31 06:08:41;;;;;;;94.70;52.58;;;;;;;8.53;68.85;101952.25;4955027;28;20417;-83
2022/12/31 06:11:06;;;;;;;84.22;46.42;;;;;;;8.52;68.83;101958.53;4954843;28;20035;-80
2022/12/31 06:13:32;;;;;;;89.63;48.53;;;;;;;8.35;68.93;101931.75;4954555;28;20098;-81
2022/12/31 06:16:03;;;;;;;86.70;48.00;;;;;;;8.46;69.22;101962.41;4954403;28;20424;-81
2022/12/31 06:18:28;;;;;;;90.95;47.05;;;;;;;8.44;69.06;101964.28;4954400;28;20078;-81
2022/12/31 06:20:57;;;;;;;88.30;50.20;;;;;;;8.47;69.26;101966.81;4954375;28;20035;-81
2022/12/31 06:23:22;;;;;;;88.13;48.55;;;;;;;8.49;69.22;101978.34;4954243;28;20031;-80
2022/12/31 06:25:48;;;;;;;92.85;48.10;;;;;;;8.51;69.12;101980.94;4954332;28;20467;-80
2022/12/31 06:28:13;;;;;;;85.63;47.72;;;;;;;8.53;68.93;101990.63;4948445;28;20772;-81
2022/12/31 06:30:39;;;;;;;81.47;48.83;;;;;;;8.56;69.01;101993.16;4948751;28;20091;-81
2022/12/31 06:33:04;;;;;;;87.82;46.58;;;;;;;8.60;69.03;101992.06;4947020;28;20051;-82
2022/12/31 06:35:29;;;;;;;86.57;47.15;;;;;;;8.63;68.84;101983.84;4955393;28;20051;-81
2022/12/31 06:37:55;;;;;;;79.82;43.63;;;;;;;8.66;68.61;101997.09;4955766;28;20161;-81
2022/12/31 06:40:20;;;;;;;70.28;41.17;;;;;;;8.62;68.66;101989.31;4954646;28;20162;-81
2022/12/31 06:42:46;;;;;;;83.03;40.83;;;;;;;8.71;68.88;101997.72;4954908;28;20035;-81
2022/12/31 06:45:11;;;;;;;67.90;37.00;;;;;;;8.70;68.69;102001.38;4954225;28;20110;-81
2022/12/31 06:47:36;;;;;;;74.03;39.03;;;;;;;8.83;68.72;102012.34;4948823;28;20056;-80
2022/12/31 06:50:02;;;;;;;79.03;37.40;;;;;;;8.85;68.68;102005.06;4942732;28;20035;-79
2022/12/31 06:52:28;;;;;;;64.10;34.33;;;;;;;8.93;68.52;102015.41;4950234;28;20045;-80
2022/12/31 06:54:53;;;;;;;65.50;35.92;;;;;;;8.96;68.47;102009.88;4965788;28;20082;-81
2022/12/31 06:57:19;;;;;;;59.40;34.67;;;;;;;9.02;68.71;102014.94;4954758;28;20041;-81
2022/12/31 06:59:45;;;;;;;62.78;36.42;;;;;;;9.12;67.99;102021.53;4944226;28;20028;-81
2022/12/31 07:02:50;;;;;;;77.50;38.15;;;;;;;9.19;68.05;102033.69;4951979;28;20023;-81
2022/12/31 07:05:40;;;;;;;56.40;30.38;;;;;;;9.32;67.98;102021.34;4939627;29;20035;-81
2022/12/31 07:08:38;;;;;;;49.95;28.90;;;;;;;9.39;67.65;102009.28;4935174;29;20031;-81
2022/12/31 07:11:17;;;;;;;45.83;26.13;;;;;;;9.46;66.63;102001.78;4893758;29;20051;-80
2022/12/31 07:13:57;;;;;;;56.92;34.38;;;;;;;9.65;66.54;102026.69;4934358;29;20428;-82
2022/12/31 07:17:02;;;;;;;59.75;30.13;;;;;;;9.69;66.36;102034.47;4934205;29;20024;-81
2022/12/31 07:19:37;;;;;;;61.47;27.25;;;;;;;9.71;65.77;102021.84;4934036;29;20506;-80
2022/12/31 07:22:03;;;;;;;49.47;26.83;;;;;;;9.87;65.10;102035.28;4934144;29;20038;-81
2022/12/31 07:24:29;;;;;;;43.22;24.92;;;;;;;9.96;65.20;102041.97;4934566;29;20479;-79
2022/12/31 07:27:10;;;;;;;44.70;24.55;;;;;;;10.01;64.82;102035.38;4917363;29;20135;-82
2022/12/31 07:29:59;;;;;;;42.03;23.27;;;;;;;10.13;64.63;102039.16;4934062;29;20570;-85
2022/12/31 07:32:49;;;;;;;35.38;21.48;;;;;;;10.18;64.43;102048.75;4838411;29;20405;-82
2022/12/31 07:35:23;;;;;;;35.47;21.10;;;;;;;10.25;64.28;102050.13;4838504;29;20069;-81
2022/12/31 07:37:51;;;;;;;35.30;18.27;;;;;;;10.35;64.46;102055.84;4838624;29;20071;-82
2022/12/31 07:40:36;;;;;;;38.63;19.65;;;;;;;10.44;64.19;102049.94;4839930;29;20044;-82
2022/12/31 07:43:22;;;;;;;36.55;18.67;;;;;;;10.56;63.83;102054.59;4838462;29;20053;-83
2022/12/31 07:46:24;;;;;;;27.98;17.40;;;;;;;10.60;63.17;102044.53;4838633;29;20041;-80
2022/12/31 07:48:50;;;;;;;26.60;16.47;;;;;;;10.80;63.21;102060.34;4838937;29;20101;-85
2022/12/31 07:51:15;;;;;;;27.80;15.10;;;;;;;10.90;62.11;102058.84;4839270;29;20050;-84
2022/12/31 07:53:41;;;;;;;24.15;16.65;;;;;;;11.03;61.80;102076.00;4839604;29;20030;-82
2022/12/31 07:56:08;;;;;;;39.63;19.35;;;;;;;11.15;62.05;102071.69;4839244;29;20077;-83
2022/12/31 07:58:39;;;;;;;76.43;25.33;;;;;;;11.05;62.03;102040.91;4839434;29;20029;-82
2022/12/31 08:01:10;;;;;;;49.53;23.65;;;;;;;11.27;61.14;102069.13;4838479;29;20072;-83
2022/12/31 08:03:41;;;;;;;55.42;30.05;;;;;;;11.32;60.96;102066.13;4838588;29;20149;-82
2022/12/31 08:06:25;;;;;;;57.28;27.75;;;;;;;11.46;61.33;102064.34;4838045;29;20073;-81
2022/12/31 08:09:02;;;;;;;65.03;35.20;;;;;;;11.59;61.10;102068.97;4860441;29;20040;-80
2022/12/31 08:11:37;;;;;;;56.53;32.10;;;;;;;11.64;60.40;102073.09;4935837;29;20157;-79
2022/12/31 08:14:02;;;;;;;52.03;28.52;;;;;;;11.74;60.44;102076.97;4935138;29;20480;-79
2022/12/31 08:16:29;;;;;;;39.55;25.75;;;;;;;11.79;59.68;102080.25;4933759;29;20043;-81
2022/12/31 08:18:55;;;;;;;46.90;27.10;;;;;;;11.81;59.53;102063.97;4934542;29;20098;-81
2022/12/31 08:21:36;;;;;;;54.83;29.27;;;;;;;12.04;59.23;102089.47;4933953;29;20036;-82
2022/12/31 08:24:10;;;;;;;56.83;27.92;;;;;;;12.13;58.92;102078.97;4933870;29;20024;-82
2022/12/31 08:26:44;;;;;;;50.47;30.15;;;;;;;12.19;58.61;102072.28;4935511;29;20036;-82
2022/12/31 08:29:24;;;;;;;99.75;52.97;;;;;;;12.35;58.71;102076.56;4934107;29;20031;-83
2022/12/31 08:32:32;;;;;;;121.75;66.60;;;;;;;12.41;58.46;102075.31;4934373;29;20031;-81
2022/12/31 08:35:12;;;;;;;95.03;56.30;;;;;;;12.47;58.79;102080.31;4837390;29;20053;-83
2022/12/31 08:37:42;;;;;;;117.25;55.88;;;;;;;12.51;58.68;102071.03;4838171;29;20127;-81
2022/12/31 08:40:32;;;;;;;107.05;55.42;;;;;;;12.61;58.84;102069.47;4839552;29;20053;-82
2022/12/31 08:43:17;;;;;;;100.50;51.55;;;;;;;12.75;58.52;102058.59;4824488;29;20041;-82
2022/12/31 08:45:51;;;;;;;95.90;48.70;;;;;;;12.85;58.20;102059.69;4838195;29;20066;-82
2022/12/31 08:48:25;;;;;;;82.57;48.70;;;;;;;12.96;58.26;102067.97;4837873;29;20121;-81
2022/12/31 08:50:52;;;;;;;79.20;41.05;;;;;;;12.99;57.67;102045.25;4838534;29;20121;-84
2022/12/31 08:53:18;;;;;;;126.70;62.88;;;;;;;13.22;57.82;102057.19;4838398;29;20050;-82
2022/12/31 08:55:46;;;;;;;99.82;50.58;;;;;;;13.25;57.13;102038.06;4838981;29;20038;-83
2022/12/31 08:58:29;;;;;;;91.05;46.38;;;;;;;13.41;57.08;102049.53;4842874;29;20545;-81
2022/12/31 09:01:00;;;;;;;105.22;49.72;;;;;;;13.46;57.48;102039.25;4839689;29;20046;-83
2022/12/31 09:03:36;;;;;;;88.10;48.75;;;;;;;13.59;56.88;102045.53;4841376;29;20030;-83
2022/12/31 09:06:18;;;;;;;89.65;48.50;;;;;;;13.73;56.61;102047.25;4844530;29;20125;-89
2022/12/31 09:09:28;;;;;;;79.03;43.58;;;;;;;13.80;56.24;102038.56;4853141;29;20033;-86
2022/12/31 09:12:03;;;;;;;83.63;43.35;;;;;;;13.79;56.21;102036.81;4907305;29;20114;-83
2022/12/31 09:14:46;;;;;;;86.57;43.05;;;;;;;13.94;55.89;102035.72;4946311;29;20028;-85
2022/12/31 09:17:23;;;;;;;92.47;42.72;;;;;;;14.02;55.72;102033.34;4944706;29;20038;-82
2022/12/31 09:19:49;;;;;;;93.40;45.38;;;;;;;14.14;55.69;102039.66;4937591;29;20044;-78
2022/12/31 09:22:15;;;;;;;77.00;38.83;;;;;;;14.18;55.18;102025.81;4936893;29;20035;-79
2022/12/31 09:24:41;;;;;;;63.83;37.63;;;;;;;14.25;54.87;102022.66;4937303;29;20036;-81
2022/12/31 09:27:29;;;;;;;57.95;32.03;;;;;;;14.43;54.04;102021.31;4936880;29;20086;-81
2022/12/31 09:30:10;;;;;;;51.50;28.50;;;;;;;14.49;53.45;102018.13;4919396;29;20028;-78
2022/12/31 09:32:54;;;;;;;33.33;20.27;;;;;;;14.52;52.52;102026.03;4936067;29;20047;-77
2022/12/31 09:35:44;;;;;;;40.85;22.30;;;;;;;14.57;52.78;102007.56;4918991;29;20059;-80
2022/12/31 09:38:14;;;;;;;37.85;21.67;;;;;;;14.64;52.60;102008.84;4936922;29;20116;-78
2022/12/31 09:40:45;;;;;;;42.35;22.95;;;;;;;14.79;52.11;102007.66;4936554;29;20039;-79
2022/12/31 09:43:45;;;;;;;36.30;21.00;;;;;;;14.97;51.84;102010.78;4928980;29;20107;-84
2022/12/31 09:46:48;;;;;;;44.80;24.45;;;;;;;15.12;51.88;102010.47;4926726;29;20123;-83
2022/12/31 09:49:31;;;;;;;;;;;;;;;15.27;51.15;102011.09;4937743;29;20127;-82
2022/12/31 09:52:08;;;;;;;40.70;20.27;;;;;;;15.30;50.69;102001.84;4938292;29;19915;-82
2022/12/31 09:54:57;;;;;;;31.77;20.33;;;;;;;15.43;50.53;101999.91;4920922;29;20479;-83
2022/12/31 09:57:37;;;;;;;37.58;21.42;;;;;;;15.51;50.80;101990.19;4841653;29;20129;-81
2022/12/31 10:00:27;;;;;;;57.22;22.92;;;;;;;15.62;50.23;101981.19;4840731;29;20046;-80
2022/12/31 10:03:17;;;;;;;43.33;24.15;;;;;;;15.75;49.94;101987.31;4840222;29;20034;-80
2022/12/31 10:06:07;;;;;;;53.53;22.52;;;;;;;15.80;49.48;101974.28;4839887;29;20046;-83
2022/12/31 10:08:57;;;;;;;57.13;24.00;;;;;;;15.87;49.29;101972.75;4841273;29;20046;-83
2022/12/31 10:11:31;;;;;;;39.88;23.60;;;;;;;15.98;49.11;101966.47;4841610;29;20036;-84
2022/12/31 10:14:15;;;;;;;38.33;22.25;;;;;;;16.06;49.35;101978.41;4842110;29;20108;-84
2022/12/31 10:16:52;;;;;;;39.28;23.85;;;;;;;16.07;48.81;101958.41;4840512;29;20046;-83
2022/12/31 10:19:49;;;;;;;42.55;24.88;;;;;;;16.19;48.78;101970.97;4843613;29;20041;-86
2022/12/31 10:22:49;;;;;;;45.80;24.08;;;;;;;16.25;48.73;101970.44;4848562;29;20057;-86
2022/12/31 10:25:52;;;;;;;53.22;23.52;;;;;;;16.38;48.64;101955.84;4811361;29;20045;-84
2022/12/31 10:28:47;;;;;;;35.90;21.15;;;;;;;16.43;48.30;101950.88;4807280;29;20051;-82
2022/12/31 10:31:40;;;;;;;50.22;19.70;;;;;;;16.48;48.25;101954.06;4805762;29;20138;-81
2022/12/31 10:34:36;;;;;;;45.20;21.02;;;;;;;16.57;48.30;101951.47;4833879;29;20061;-80
2022/12/31 10:37:17;;;;;;;36.45;19.52;;;;;;;16.63;47.87;101944.66;4893388;29;20032;-82
2022/12/31 10:39:48;;;;;;;46.00;19.45;;;;;;;16.69;47.44;101935.97;4895702;29;20571;-80
2022/12/31 10:42:44;;;;;;;41.33;21.15;;;;;;;16.80;47.42;101950.34;4895943;29;20044;-81
2022/12/31 10:45:38;;;;;;;41.63;20.60;;;;;;;16.84;47.25;101948.22;4895941;29;20054;-80
2022/12/31 10:48:25;;;;;;;30.00;19.08;;;;;;;16.82;47.05;101944.75;4896902;29;20509;-81
2022/12/31 10:50:53;;;;;;;34.00;21.00;;;;;;;16.90;47.15;101950.41;4895919;29;20080;-81
2022/12/31 10:54:00;;;;;;;46.25;21.92;;;;;;;16.97;46.80;101942.59;4920222;29;20093;-80
2022/12/31 10:57:15;;;;;;;37.40;20.98;;;;;;;17.01;46.80;101938.59;4845937;29;20054;-80
2022/12/31 10:59:49;;;;;;;42.92;22.73;;;;;;;16.94;46.74;101929.28;4755587;30;20044;-81
2022/12/31 11:02:39;;;;;;;37.10;20.30;;;;;;;17.04;46.55;101939.19;4779477;30;20075;-87
2022/12/31 11:05:38;;;;;;;48.58;22.30;;;;;;;17.03;46.46;101932.00;4786525;29;20050;-81
2022/12/31 11:08:12;;;;;;;42.65;21.58;;;;;;;17.09;46.42;101919.75;4802423;29;20513;-81
2022/12/31 11:10:49;;;;;;;38.03;21.85;;;;;;;17.16;46.18;101920.91;4802903;29;20046;-80
2022/12/31 11:13:27;;;;;;;35.35;20.63;;;;;;;17.21;46.17;101916.81;4802484;29;20051;-81
2022/12/31 11:16:18;;;;;;;33.63;21.05;;;;;;;17.26;46.17;101911.81;4803211;29;20039;-81
2022/12/31 11:19:25;;;;;;;42.45;20.65;;;;;;;17.47;45.80;101921.78;4802157;29;20098;-82
2022/12/31 11:22:16;;;;;;;41.28;21.65;;;;;;;17.59;45.29;101899.78;4772609;30;20119;-78
2022/12/31 11:24:57;;;;;;;38.97;18.45;;;;;;;17.85;44.60;101921.94;4765865;30;20059;-81
2022/12/31 11:27:33;;;;;;;54.22;18.95;;;;;;;18.02;44.50;101918.50;4765135;30;20528;-78
2022/12/31 11:30:26;;;;;;;51.60;19.02;;;;;;;18.18;43.93;101913.38;4766650;30;20135;-80
2022/12/31 11:32:57;;;;;;;30.75;16.80;;;;;;;18.25;43.39;101911.81;4762422;30;20060;-80
2022/12/31 11:35:55;;;;;;;31.83;19.13;;;;;;;18.32;43.36;101912.94;4763443;29;20040;-80
2022/12/31 11:38:24;;;;;;;45.42;18.30;;;;;;;18.38;43.11;101898.72;4897825;29;20037;-86
2022/12/31 11:41:06;;;;;;;30.83;16.95;;;;;;;18.40;42.74;101910.38;4896828;29;20141;-78
2022/12/31 11:43:47;;;;;;;33.10;20.00;;;;;;;18.45;42.92;101916.22;4894026;29;20040;-80
2022/12/31 11:46:15;;;;;;;36.58;19.17;;;;;;;18.46;42.69;101911.66;4894855;29;20047;-80
2022/12/31 11:48:47;;;;;;;31.92;18.60;;;;;;;18.51;42.49;101919.41;4895348;29;20077;-83
2022/12/31 11:51:39;;;;;;;39.10;18.10;;;;;;;18.52;42.33;101915.69;4897348;29;20040;-82
2022/12/31 11:54:10;;;;;;;34.88;18.02;;;;;;;18.52;42.46;101915.69;4954643;28;20027;-80